createdAt,value
2022-12-17T00:02:04.583Z,45.20
2022-12-17T00:04:49.401Z,44.40
2022-12-17T00:07:36.963Z,42.93
2022-12-17T00:10:22.383Z,43.13
2022-12-17T00:13:09.143Z,37.77
2022-12-17T00:15:54.579Z,41.63
2022-12-17T00:18:41.334Z,44.43
2022-12-17T00:21:39.202Z,42.80
2022-12-17T00:24:24.678Z,42.07
2022-12-17T00:27:09.796Z,39.93
2022-12-17T00:29:56.324Z,41.17
2022-12-17T00:32:43.827Z,44.43
2022-12-17T00:35:29.796Z,43.70
2022-12-17T00:38:14.768Z,44.23
2022-12-17T00:40:59.685Z,46.50
2022-12-17T00:43:45.071Z,47.37
2022-12-17T00:46:31.148Z,44.97
2022-12-17T00:49:16.310Z,45.57
2022-12-17T00:52:01.363Z,45.60
2022-12-17T00:54:47.767Z,44.17
2022-12-17T00:57:47.095Z,44.27
2022-12-17T01:00:33.558Z,46.60
2022-12-17T01:03:27.923Z,49.13
2022-12-17T01:06:13.146Z,44.23
2022-12-17T01:08:58.444Z,48.53
2022-12-17T01:11:43.226Z,46.43
2022-12-17T01:14:28.609Z,49.67
2022-12-17T01:17:14.448Z,41.53
2022-12-17T01:20:00.783Z,46.63
2022-12-17T01:22:45.964Z,46.67
2022-12-17T01:25:32.263Z,42.43
2022-12-17T01:28:17.068Z,43.40
2022-12-17T01:31:02.150Z,44.27
2022-12-17T01:33:47.212Z,47.10
2022-12-17T01:36:33.831Z,49.13
2022-12-17T01:39:18.691Z,46.63
2022-12-17T01:42:03.864Z,41.03
2022-12-17T01:45:05.948Z,45.77
2022-12-17T01:47:53.335Z,40.27
2022-12-17T01:50:42.652Z,41.43
2022-12-17T01:53:29.649Z,46.37
2022-12-17T01:56:16.024Z,34.03
2022-12-17T01:59:02.426Z,44.43
2022-12-17T02:01:47.631Z,47.43
2022-12-17T02:04:33.014Z,45.73
2022-12-17T02:07:24.977Z,47.07
2022-12-17T02:10:14.529Z,44.60
2022-12-17T02:13:03.312Z,45.40
2022-12-17T02:15:52.409Z,43.23
2022-12-17T02:18:40.211Z,48.93
2022-12-17T02:21:26.761Z,46.03
2022-12-17T02:24:15.038Z,42.53
2022-12-17T02:27:18.840Z,49.73
2022-12-17T02:30:06.565Z,47.97
2022-12-17T02:32:53.714Z,51.67
2022-12-17T02:35:43.955Z,43.83
2022-12-17T02:38:35.914Z,45.30
2022-12-17T02:41:22.889Z,49.10
2022-12-17T02:44:10.178Z,41.73
2022-12-17T02:46:56.060Z,49.00
2022-12-17T02:49:42.601Z,43.43
2022-12-17T02:52:33.287Z,50.30
2022-12-17T02:55:20.122Z,46.47
2022-12-17T02:58:06.164Z,46.13
2022-12-17T03:00:52.451Z,50.13
2022-12-17T03:03:38.484Z,42.77
2022-12-17T03:06:23.953Z,49.93
2022-12-17T03:09:08.837Z,44.63
2022-12-17T03:11:54.762Z,46.47
2022-12-17T03:14:39.534Z,46.63
2022-12-17T03:17:25.714Z,49.10
2022-12-17T03:20:19.002Z,52.23
2022-12-17T03:23:04.462Z,46.77
2022-12-17T03:25:49.862Z,42.80
2022-12-17T03:28:35.134Z,44.23
2022-12-17T03:31:20.315Z,43.90
2022-12-17T03:34:06.936Z,41.23
2022-12-17T03:36:51.828Z,46.63
2022-12-17T03:39:36.706Z,46.37
2022-12-17T03:42:21.609Z,40.33
2022-12-17T03:45:06.407Z,45.27
2022-12-17T03:47:51.375Z,42.10
2022-12-17T03:50:37.554Z,46.50
2022-12-17T03:53:22.936Z,44.97
2022-12-17T03:56:08.540Z,40.63
2022-12-17T03:58:53.288Z,44.90
2022-12-17T04:01:38.389Z,29.20
2022-12-17T04:04:23.460Z,34.20
2022-12-17T04:07:09.698Z,42.30
2022-12-17T04:09:54.617Z,38.63
2022-12-17T04:12:39.489Z,36.73
2022-12-17T04:15:25.113Z,45.73
2022-12-17T04:18:10.416Z,44.60
2022-12-17T04:20:55.339Z,42.07
2022-12-17T04:23:44.991Z,38.87
2022-12-17T04:26:29.802Z,42.00
2022-12-17T04:29:14.636Z,44.00
2022-12-17T04:31:59.770Z,42.93
2022-12-17T04:34:44.713Z,38.80
2022-12-17T04:37:29.688Z,39.50
2022-12-17T04:40:15.822Z,46.37
2022-12-17T04:43:00.762Z,43.93
2022-12-17T04:45:45.672Z,43.30
2022-12-17T04:48:34.028Z,46.10
2022-12-17T04:51:18.846Z,39.20
2022-12-17T04:54:03.637Z,38.33
2022-12-17T04:56:49.973Z,39.67
2022-12-17T04:59:36.354Z,42.83
2022-12-17T05:02:21.732Z,45.93
2022-12-17T05:05:18.330Z,40.90
2022-12-17T05:08:03.535Z,46.70
2022-12-17T05:10:48.379Z,49.70
2022-12-17T05:13:35.149Z,49.03
2022-12-17T05:16:20.613Z,50.63
2022-12-17T05:19:05.711Z,45.03
2022-12-17T05:21:50.588Z,46.27
2022-12-17T05:24:35.730Z,44.37
2022-12-17T05:27:20.490Z,46.47
2022-12-17T05:30:06.655Z,47.73
2022-12-17T05:32:51.784Z,47.07
2022-12-17T05:35:36.844Z,45.10
2022-12-17T05:38:22.791Z,48.73
2022-12-17T05:41:07.744Z,53.50
2022-12-17T05:43:52.496Z,50.80
2022-12-17T05:46:39.130Z,57.47
2022-12-17T05:49:24.222Z,53.30
2022-12-17T05:52:09.038Z,51.50
2022-12-17T05:55:05.260Z,45.53
2022-12-17T05:57:55.998Z,56.30
2022-12-17T06:00:41.795Z,54.40
2022-12-17T06:03:28.706Z,51.40
2022-12-17T06:06:14.539Z,49.73
2022-12-17T06:08:59.393Z,52.70
2022-12-17T06:11:44.249Z,55.37
2022-12-17T06:14:29.229Z,61.60
2022-12-17T06:17:14.147Z,52.63
2022-12-17T06:20:00.373Z,55.83
2022-12-17T06:22:45.474Z,48.97
2022-12-17T06:25:30.527Z,56.93
2022-12-17T06:28:18.599Z,53.63
2022-12-17T06:31:10.727Z,58.20
2022-12-17T06:33:56.190Z,52.63
2022-12-17T06:36:42.614Z,53.80
2022-12-17T06:39:27.424Z,56.97
2022-12-17T06:42:12.623Z,60.67
2022-12-17T06:44:57.394Z,53.80
2022-12-17T06:47:42.382Z,53.03
2022-12-17T06:50:27.888Z,55.13
2022-12-17T06:53:18.348Z,56.90
2022-12-17T06:55:59.720Z,59.90
2022-12-17T06:58:44.799Z,57.90
2022-12-17T07:01:29.877Z,63.00
2022-12-17T07:04:15.240Z,66.60
2022-12-17T07:07:14.503Z,59.57
2022-12-17T07:10:00.633Z,54.30
2022-12-17T07:12:45.848Z,54.63
2022-12-17T07:15:30.723Z,44.90
2022-12-17T07:18:16.487Z,59.30
2022-12-17T07:21:01.546Z,57.57
2022-12-17T07:23:46.682Z,56.13
2022-12-17T07:26:33.486Z,48.67
2022-12-17T07:29:18.913Z,49.77
2022-12-17T07:32:04.031Z,41.10
2022-12-17T07:34:49.169Z,49.60
2022-12-17T07:37:34.029Z,20.33
2022-12-17T07:40:18.879Z,56.37
2022-12-17T07:43:05.212Z,43.97
2022-12-17T07:45:51.085Z,51.57
2022-12-17T07:48:36.296Z,45.00
2022-12-17T07:51:21.070Z,56.07
2022-12-17T07:54:05.923Z,46.40
2022-12-17T07:56:50.855Z,48.40
2022-12-17T07:59:33.607Z,39.63
2022-12-17T08:02:19.252Z,49.63
2022-12-17T08:05:04.290Z,51.57
2022-12-17T08:07:49.140Z,49.27
2022-12-17T08:10:34.623Z,50.03
2022-12-17T08:13:20.915Z,49.07
2022-12-17T08:16:07.733Z,53.03
2022-12-17T08:18:52.884Z,37.53
2022-12-17T08:21:37.659Z,41.07
2022-12-17T08:24:19.406Z,42.90
2022-12-17T08:27:04.202Z,44.23
2022-12-17T08:29:45.824Z,53.63
2022-12-17T08:32:32.840Z,45.87
2022-12-17T08:35:17.847Z,55.07
2022-12-17T08:38:02.677Z,47.70
2022-12-17T08:40:47.751Z,65.13
2022-12-17T08:43:32.534Z,52.93
2022-12-17T08:46:17.603Z,49.43
2022-12-17T08:49:03.952Z,55.80
2022-12-17T08:51:49.240Z,43.47
2022-12-17T08:54:34.252Z,48.60
2022-12-17T08:57:30.676Z,48.67
2022-12-17T09:00:16.544Z,44.93
2022-12-17T09:03:01.649Z,47.77
2022-12-17T09:05:48.228Z,45.30
2022-12-17T09:08:33.400Z,33.80
2022-12-17T09:11:18.983Z,27.03
2022-12-17T09:14:03.959Z,41.73
2022-12-17T09:16:48.923Z,25.53
2022-12-17T09:19:33.392Z,28.97
2022-12-17T09:22:19.393Z,45.23
2022-12-17T09:25:04.422Z,16.10
2022-12-17T09:27:49.539Z,19.93
2022-12-17T09:30:34.881Z,24.20
2022-12-17T09:33:19.904Z,49.90
2022-12-17T09:36:04.765Z,30.20
2022-12-17T09:38:50.979Z,45.10
2022-12-17T09:41:42.019Z,45.67
2022-12-17T09:44:41.936Z,23.60
2022-12-17T09:47:42.391Z,35.27
2022-12-17T09:50:30.724Z,25.33
2022-12-17T09:53:16.630Z,44.87
2022-12-17T09:56:05.744Z,30.20
2022-12-17T09:58:53.684Z,31.33
2022-12-17T10:01:40.164Z,22.90
2022-12-17T10:04:28.803Z,36.10
2022-12-17T10:07:28.235Z,11.87
2022-12-17T10:10:13.187Z,32.60
2022-12-17T10:12:59.458Z,33.60
2022-12-17T10:15:44.650Z,24.37
2022-12-17T10:18:30.816Z,32.13
2022-12-17T10:21:16.984Z,47.50
2022-12-17T10:24:02.149Z,28.13
2022-12-17T10:26:48.084Z,21.17
2022-12-17T10:29:35.377Z,25.03
2022-12-17T10:32:27.603Z,23.97
2022-12-17T10:35:12.877Z,30.90
2022-12-17T10:37:57.886Z,37.20
2022-12-17T10:40:44.344Z,46.47
2022-12-17T10:43:42.549Z,38.97
2022-12-17T10:46:28.630Z,34.93
2022-12-17T10:49:23.510Z,46.83
2022-12-17T10:52:08.814Z,31.23
2022-12-17T10:54:53.847Z,24.67
2022-12-17T10:57:42.234Z,42.20
2022-12-17T11:00:38.502Z,45.73
2022-12-17T11:03:25.051Z,36.53
2022-12-17T11:06:12.187Z,35.47
2022-12-17T11:08:58.215Z,31.03
2022-12-17T11:11:43.719Z,53.27
2022-12-17T11:14:30.508Z,32.90
2022-12-17T11:17:17.165Z,41.93
2022-12-17T11:20:19.537Z,37.57
2022-12-17T11:23:06.320Z,35.03
2022-12-17T11:25:54.542Z,35.17
2022-12-17T11:28:41.002Z,22.53
2022-12-17T11:31:49.570Z,31.50
2022-12-17T11:34:41.983Z,27.17
2022-12-17T11:37:32.823Z,33.07
2022-12-17T11:40:21.637Z,31.87
2022-12-17T11:43:11.074Z,17.90
2022-12-17T11:46:01.883Z,18.50
2022-12-17T11:48:51.272Z,5.40
2022-12-17T11:51:47.700Z,27.53
2022-12-17T11:54:37.804Z,24.27
2022-12-17T11:57:26.781Z,32.33
2022-12-17T12:00:16.757Z,14.73
2022-12-17T12:03:03.769Z,46.80
2022-12-17T12:05:56.642Z,42.00
2022-12-17T12:08:42.730Z,39.20
2022-12-17T12:11:34.444Z,41.07
2022-12-17T12:14:20.280Z,40.60
2022-12-17T12:17:09.552Z,39.60
2022-12-17T12:20:00.521Z,32.10
2022-12-17T12:22:49.945Z,39.67
2022-12-17T12:25:40.851Z,40.73
2022-12-17T12:28:32.179Z,46.80
2022-12-17T12:31:24.230Z,32.23
2022-12-17T12:34:11.950Z,34.50
2022-12-17T12:36:57.707Z,30.70
2022-12-17T12:39:47.735Z,32.27
2022-12-17T12:42:36.030Z,31.33
2022-12-17T12:45:25.170Z,27.70
2022-12-17T12:48:13.451Z,30.57
2022-12-17T12:51:01.982Z,29.57
2022-12-17T12:53:52.192Z,29.00
2022-12-17T12:56:47.322Z,26.33
2022-12-17T12:59:40.816Z,35.63
2022-12-17T13:02:33.528Z,27.53
2022-12-17T13:05:24.615Z,17.77
2022-12-17T13:08:02.319Z,7.33
2022-12-17T13:10:31.222Z,11.87
2022-12-17T13:13:01.077Z,23.20
2022-12-17T13:15:33.640Z,31.30
2022-12-17T13:18:06.714Z,26.40
2022-12-17T13:20:35.388Z,24.50
2022-12-17T13:23:14.681Z,22.53
2022-12-17T13:25:42.695Z,26.00
2022-12-17T13:28:25.929Z,15.83
2022-12-17T13:31:01.860Z,25.50
2022-12-17T13:33:32.103Z,22.70
2022-12-17T13:36:05.258Z,23.83
2022-12-17T13:38:41.483Z,25.47
2022-12-17T13:41:10.736Z,28.37
2022-12-17T13:43:41.126Z,24.97
2022-12-17T13:46:18.852Z,29.33
2022-12-17T13:48:58.181Z,22.20
2022-12-17T13:51:26.846Z,19.07
2022-12-17T13:53:55.749Z,28.40
2022-12-17T13:56:27.074Z,30.23
2022-12-17T13:58:55.884Z,29.10
2022-12-17T14:01:26.120Z,30.30
2022-12-17T14:04:06.138Z,25.10
2022-12-17T14:06:36.189Z,24.20
2022-12-17T14:09:04.689Z,29.50
2022-12-17T14:11:50.238Z,29.57
2022-12-17T14:14:21.091Z,23.20
2022-12-17T14:16:50.931Z,30.13
2022-12-17T14:19:19.959Z,21.87
2022-12-17T14:21:47.902Z,19.20
2022-12-17T14:24:15.878Z,21.63
2022-12-17T14:26:53.492Z,23.00
2022-12-17T14:29:24.990Z,22.97
2022-12-17T14:31:53.344Z,25.93
2022-12-17T14:34:22.444Z,24.53
2022-12-17T14:36:55.173Z,30.77
2022-12-17T14:39:26.192Z,34.30
2022-12-17T14:42:11.955Z,29.53
2022-12-17T14:44:43.208Z,13.10
2022-12-17T14:47:14.785Z,25.83
2022-12-17T14:49:55.232Z,29.90
2022-12-17T14:52:25.770Z,24.27
2022-12-17T14:54:53.180Z,28.70
2022-12-17T14:57:21.680Z,31.10
2022-12-17T14:59:49.175Z,26.27
2022-12-17T15:02:23.552Z,27.53
2022-12-17T15:04:53.561Z,25.77
2022-12-17T15:07:24.424Z,24.10
2022-12-17T15:09:52.715Z,29.30
2022-12-17T15:12:20.520Z,27.90
2022-12-17T15:14:48.182Z,32.07
2022-12-17T15:17:16.281Z,22.97
2022-12-17T15:19:44.198Z,32.33
2022-12-17T15:22:16.631Z,25.43
2022-12-17T15:24:46.911Z,23.17
2022-12-17T15:27:14.750Z,24.80
2022-12-17T15:29:42.221Z,21.13
2022-12-17T15:32:13.392Z,23.47
2022-12-17T15:34:41.067Z,21.67
2022-12-17T15:37:08.479Z,18.50
2022-12-17T15:39:37.404Z,19.10
2022-12-17T15:42:22.612Z,24.00
2022-12-17T15:44:50.187Z,18.77
2022-12-17T15:47:17.859Z,19.17
2022-12-17T15:49:46.814Z,23.13
2022-12-17T15:52:15.111Z,22.63
2022-12-17T15:54:44.196Z,19.17
2022-12-17T15:57:18.211Z,21.27
2022-12-17T15:59:46.655Z,24.20
2022-12-17T16:02:14.448Z,21.80
2022-12-17T16:04:41.991Z,18.43
2022-12-17T16:07:09.441Z,20.60
2022-12-17T16:09:36.972Z,20.83
2022-12-17T16:12:05.999Z,26.17
2022-12-17T16:14:33.538Z,25.30
2022-12-17T16:17:00.989Z,22.37
2022-12-17T16:19:28.450Z,22.63
2022-12-17T16:21:55.859Z,21.43
2022-12-17T16:24:23.927Z,24.13
2022-12-17T16:26:51.428Z,22.30
2022-12-17T16:29:20.286Z,26.70
2022-12-17T16:31:47.748Z,18.83
2022-12-17T16:34:15.570Z,20.67
2022-12-17T16:36:43.049Z,19.40
2022-12-17T16:39:15.484Z,21.37
2022-12-17T16:41:43.039Z,18.77
2022-12-17T16:44:10.552Z,16.23
2022-12-17T16:46:40.126Z,19.27
2022-12-17T16:49:08.742Z,16.43
2022-12-17T16:51:36.511Z,18.33
2022-12-17T16:54:06.032Z,18.67
2022-12-17T16:56:39.696Z,16.90
2022-12-17T16:59:08.779Z,14.67
2022-12-17T17:01:37.132Z,20.17
2022-12-17T17:04:06.706Z,22.13
2022-12-17T17:06:38.365Z,16.87
2022-12-17T17:09:06.197Z,23.03
2022-12-17T17:11:34.056Z,16.00
2022-12-17T17:14:01.510Z,17.43
2022-12-17T17:16:28.987Z,17.47
2022-12-17T17:18:56.556Z,17.33
2022-12-17T17:21:26.918Z,11.63
2022-12-17T17:23:55.243Z,15.43
2022-12-17T17:26:25.762Z,15.47
2022-12-17T17:28:53.209Z,16.33
2022-12-17T17:31:21.822Z,14.33
2022-12-17T17:33:51.320Z,21.43
2022-12-17T17:36:19.924Z,17.30
2022-12-17T17:38:49.758Z,13.63
2022-12-17T17:41:18.932Z,13.60
2022-12-17T17:43:47.039Z,20.40
2022-12-17T17:46:15.663Z,18.77
2022-12-17T17:48:44.355Z,24.73
2022-12-17T17:51:13.465Z,22.77
2022-12-17T17:53:43.243Z,20.17
2022-12-17T17:56:18.030Z,15.43
2022-12-17T17:58:47.349Z,13.73
2022-12-17T18:01:17.041Z,18.93
2022-12-17T18:03:44.655Z,22.63
2022-12-17T18:06:13.105Z,22.10
2022-12-17T18:08:42.246Z,29.43
2022-12-17T18:11:11.263Z,24.47
2022-12-17T18:13:55.518Z,16.57
2022-12-17T18:16:24.749Z,19.03
2022-12-17T18:18:53.778Z,15.20
2022-12-17T18:21:21.802Z,35.33
2022-12-17T18:23:50.305Z,32.67
2022-12-17T18:26:19.723Z,35.40
2022-12-17T18:28:49.867Z,29.97
2022-12-17T18:31:19.751Z,31.30
2022-12-17T18:33:49.862Z,28.57
2022-12-17T18:36:19.088Z,30.73
2022-12-17T18:38:49.175Z,20.87
2022-12-17T18:41:36.376Z,19.23
2022-12-17T18:44:06.252Z,21.83
2022-12-17T18:46:34.905Z,18.77
2022-12-17T18:49:04.612Z,21.17
2022-12-17T18:51:32.547Z,14.90
2022-12-17T18:54:00.639Z,18.03
2022-12-17T18:56:59.546Z,16.27
2022-12-17T18:59:23.050Z,12.73
2022-12-17T19:01:53.884Z,14.23
2022-12-17T19:04:21.987Z,14.87
2022-12-17T19:06:52.679Z,13.47
2022-12-17T19:09:21.748Z,13.63
2022-12-17T19:11:50.054Z,11.70
2022-12-17T19:14:21.956Z,9.93
2022-12-17T19:16:50.159Z,15.53
2022-12-17T19:19:21.306Z,14.83
2022-12-17T19:21:49.644Z,10.30
2022-12-17T19:24:18.868Z,11.17
2022-12-17T19:26:46.683Z,12.03
2022-12-17T19:29:15.075Z,19.07
2022-12-17T19:31:44.596Z,16.13
2022-12-17T19:34:13.619Z,15.10
2022-12-17T19:36:42.186Z,14.23
2022-12-17T19:39:11.753Z,10.17
2022-12-17T19:41:39.778Z,19.63
2022-12-17T19:44:09.323Z,21.90
2022-12-17T19:46:37.208Z,17.50
2022-12-17T19:49:07.565Z,19.47
2022-12-17T19:51:35.158Z,19.03
2022-12-17T19:54:08.444Z,15.30
2022-12-17T19:56:37.223Z,18.40
2022-12-17T19:59:07.005Z,11.00
2022-12-17T20:01:36.336Z,11.20
2022-12-17T20:04:04.425Z,10.03
2022-12-17T20:06:34.331Z,17.07
2022-12-17T20:09:04.378Z,18.57
2022-12-17T20:11:35.172Z,13.90
2022-12-17T20:14:04.354Z,11.73
2022-12-17T20:16:33.203Z,22.80
2022-12-17T20:19:01.114Z,27.73
2022-12-17T20:21:28.580Z,43.80
2022-12-17T20:23:57.505Z,29.17
2022-12-17T20:26:26.727Z,16.70
2022-12-17T20:28:55.463Z,19.07
2022-12-17T20:31:23.061Z,16.53
2022-12-17T20:33:50.567Z,24.17
2022-12-17T20:36:19.641Z,19.37
2022-12-17T20:38:47.314Z,24.77
2022-12-17T20:41:17.111Z,24.47
2022-12-17T20:43:45.247Z,21.93
2022-12-17T20:46:13.360Z,18.23
2022-12-17T20:48:42.826Z,24.40
2022-12-17T20:51:11.983Z,21.63
2022-12-17T20:53:40.523Z,18.87
2022-12-17T20:56:09.854Z,26.90
2022-12-17T20:58:40.654Z,19.07
2022-12-17T21:01:10.261Z,18.30
2022-12-17T21:03:38.573Z,24.27
2022-12-17T21:06:08.145Z,26.53
2022-12-17T21:08:37.027Z,24.07
2022-12-17T21:11:05.999Z,24.23
2022-12-17T21:13:34.801Z,18.27
2022-12-17T21:16:06.605Z,23.67
2022-12-17T21:18:34.918Z,24.93
2022-12-17T21:21:04.052Z,21.87
2022-12-17T21:23:38.878Z,24.20
2022-12-17T21:26:08.666Z,34.57
2022-12-17T21:28:39.025Z,26.63
2022-12-17T21:31:15.037Z,26.40
2022-12-17T21:33:42.605Z,28.77
2022-12-17T21:36:10.869Z,26.83
2022-12-17T21:38:38.882Z,17.83
2022-12-17T21:41:09.553Z,17.67
2022-12-17T21:43:37.793Z,10.43
2022-12-17T21:46:05.913Z,12.77
2022-12-17T21:48:41.373Z,12.57
2022-12-17T21:51:10.721Z,12.47
2022-12-17T21:53:41.914Z,11.77
2022-12-17T21:56:10.392Z,10.57
2022-12-17T21:58:38.561Z,12.30
2022-12-17T22:01:15.876Z,16.23
2022-12-17T22:03:53.697Z,15.67
2022-12-17T22:06:22.446Z,13.17
2022-12-17T22:08:52.287Z,14.43
2022-12-17T22:11:25.643Z,15.53
2022-12-17T22:14:08.581Z,12.00
2022-12-17T22:16:41.989Z,8.50
2022-12-17T22:19:11.894Z,16.23
2022-12-17T22:21:40.779Z,12.87
2022-12-17T22:24:08.973Z,16.67
2022-12-17T22:26:36.526Z,21.40
2022-12-17T22:29:04.228Z,13.73
2022-12-17T22:31:49.131Z,10.77
2022-12-17T22:34:34.907Z,14.70
2022-12-17T22:39:55.249Z,13.03
2022-12-17T22:44:28.484Z,22.90
2022-12-17T22:44:45.170Z,15.57
2022-12-17T22:45:46.978Z,13.70
2022-12-17T22:48:14.932Z,22.47
2022-12-17T22:50:52.196Z,24.03
2022-12-17T22:53:29.901Z,23.57
2022-12-17T22:56:12.431Z,15.57
2022-12-17T22:58:43.735Z,15.70
2022-12-17T23:01:11.210Z,18.90
2022-12-17T23:03:39.258Z,16.37
2022-12-17T23:06:09.524Z,18.57
2022-12-17T23:08:37.511Z,13.07
2022-12-17T23:11:08.661Z,8.83
2022-12-17T23:13:36.814Z,9.83
2022-12-17T23:16:04.705Z,11.33
2022-12-17T23:18:33.000Z,8.57
2022-12-17T23:21:06.973Z,7.83
2022-12-17T23:23:36.163Z,11.90
2022-12-17T23:26:08.331Z,13.43
2022-12-17T23:28:35.974Z,13.87
2022-12-17T23:31:07.928Z,14.67
2022-12-17T23:33:36.149Z,16.53
2022-12-17T23:36:05.154Z,13.63
2022-12-17T23:38:33.871Z,10.20
2022-12-17T23:41:07.180Z,9.13
2022-12-17T23:43:34.640Z,11.20
2022-12-17T23:46:02.240Z,9.77
2022-12-17T23:48:30.837Z,9.00
2022-12-17T23:50:58.464Z,8.27
2022-12-17T23:53:26.247Z,11.67
2022-12-17T23:55:53.760Z,15.37
2022-12-17T23:58:23.063Z,10.97
